createdAt,value
2023-01-21T00:00:32.017Z,28.23
2023-01-21T00:02:58.452Z,28.38
2023-01-21T00:05:24.821Z,28.05
2023-01-21T00:07:51.272Z,30.05
2023-01-21T00:10:18.878Z,26.98
2023-01-21T00:12:45.324Z,27.23
2023-01-21T00:15:11.794Z,28.70
2023-01-21T00:17:38.160Z,27.15
2023-01-21T00:20:05.342Z,28.95
2023-01-21T00:22:31.859Z,26.90
2023-01-21T00:24:58.598Z,28.05
2023-01-21T00:27:25.530Z,28.00
2023-01-21T00:29:51.903Z,27.33
2023-01-21T00:32:19.541Z,27.70
2023-01-21T00:34:46.083Z,26.63
2023-01-21T00:37:12.559Z,28.13
2023-01-21T00:39:42.865Z,28.40
2023-01-21T00:42:11.130Z,26.50
2023-01-21T00:44:38.206Z,27.80
2023-01-21T00:47:04.770Z,28.63
2023-01-21T00:49:31.301Z,27.88
2023-01-21T00:51:57.880Z,27.65
2023-01-21T00:54:24.381Z,29.83
2023-01-21T00:56:50.827Z,29.85
2023-01-21T00:59:17.225Z,29.30
2023-01-21T01:01:43.597Z,26.83
2023-01-21T01:04:15.077Z,28.83
2023-01-21T01:06:41.572Z,29.52
2023-01-21T01:09:08.349Z,30.27
2023-01-21T01:11:34.733Z,27.40
2023-01-21T01:14:01.161Z,29.70
2023-01-21T01:16:27.660Z,29.75
2023-01-21T01:18:54.104Z,29.73
2023-01-21T01:21:21.183Z,28.98
2023-01-21T01:23:48.282Z,30.13
2023-01-21T01:26:16.284Z,28.83
2023-01-21T01:28:42.677Z,33.05
2023-01-21T01:31:11.464Z,30.92
2023-01-21T01:33:38.180Z,28.95
2023-01-21T01:36:06.259Z,27.80
2023-01-21T01:38:32.712Z,31.10
2023-01-21T01:40:59.201Z,28.83
2023-01-21T01:43:27.111Z,28.77
2023-01-21T01:45:54.419Z,28.67
2023-01-21T01:48:25.756Z,29.77
2023-01-21T01:50:52.403Z,29.70
2023-01-21T01:53:19.546Z,28.65
2023-01-21T01:55:47.134Z,28.58
2023-01-21T01:58:14.646Z,28.13
2023-01-21T02:00:41.149Z,28.38
2023-01-21T02:03:26.166Z,27.48
2023-01-21T02:05:53.203Z,27.52
2023-01-21T02:08:19.957Z,25.70
2023-01-21T02:10:46.529Z,29.08
2023-01-21T02:13:13.148Z,29.08
2023-01-21T02:15:52.766Z,29.23
2023-01-21T02:18:25.289Z,27.75
2023-01-21T02:20:51.674Z,29.38
2023-01-21T02:23:27.414Z,26.42
2023-01-21T02:26:12.479Z,29.67
2023-01-21T02:28:57.096Z,28.70
2023-01-21T02:31:23.619Z,27.42
2023-01-21T02:34:05.505Z,30.63
2023-01-21T02:36:49.411Z,28.30
2023-01-21T02:39:21.702Z,29.63
2023-01-21T02:42:00.419Z,27.13
2023-01-21T02:44:33.904Z,27.13
2023-01-21T02:47:06.802Z,27.60
2023-01-21T02:49:51.968Z,29.65
2023-01-21T02:52:20.824Z,27.58
2023-01-21T02:54:48.817Z,29.40
2023-01-21T02:57:17.104Z,31.13
2023-01-21T02:59:45.670Z,28.95
2023-01-21T03:02:17.676Z,28.90
2023-01-21T03:04:47.128Z,30.98
2023-01-21T03:07:16.758Z,29.45
2023-01-21T03:09:43.477Z,29.30
2023-01-21T03:12:28.415Z,29.45
2023-01-21T03:15:13.722Z,30.17
2023-01-21T03:20:10.914Z,27.90
2023-01-21T03:22:38.556Z,26.42
2023-01-21T03:25:06.507Z,29.42
2023-01-21T03:27:33.149Z,31.20
2023-01-21T03:30:02.883Z,31.17
2023-01-21T03:32:31.272Z,30.08
2023-01-21T03:34:58.512Z,28.92
2023-01-21T03:37:40.876Z,30.75
2023-01-21T03:40:18.979Z,30.25
2023-01-21T03:42:51.236Z,31.85
2023-01-21T03:45:21.722Z,29.17
2023-01-21T03:47:52.215Z,26.20
2023-01-21T03:50:27.212Z,30.13
2023-01-21T03:55:19.922Z,29.15
2023-01-21T03:57:46.404Z,30.60
2023-01-21T04:00:13.489Z,28.55
2023-01-21T04:02:39.965Z,30.55
2023-01-21T04:05:06.669Z,30.63
2023-01-21T04:07:33.153Z,29.70
2023-01-21T04:09:59.497Z,31.35
2023-01-21T04:12:26.079Z,33.65
2023-01-21T04:14:52.427Z,29.42
2023-01-21T04:17:18.813Z,30.40
2023-01-21T04:19:45.256Z,31.73
2023-01-21T04:22:12.176Z,30.75
2023-01-21T04:24:38.715Z,33.45
2023-01-21T04:27:05.098Z,32.85
2023-01-21T04:29:31.475Z,32.80
2023-01-21T04:31:57.917Z,31.70
2023-01-21T04:34:24.351Z,31.88
2023-01-21T04:36:50.726Z,33.08
2023-01-21T04:39:17.140Z,31.33
2023-01-21T04:41:43.541Z,30.55
2023-01-21T04:44:09.879Z,30.65
2023-01-21T04:46:36.303Z,32.88
2023-01-21T04:49:02.736Z,30.98
2023-01-21T04:51:29.282Z,30.25
2023-01-21T04:53:55.698Z,31.08
2023-01-21T04:56:22.096Z,29.83
2023-01-21T04:58:48.500Z,29.38
2023-01-21T05:01:14.894Z,32.03
2023-01-21T05:03:41.232Z,30.20
2023-01-21T05:06:09.967Z,28.25
2023-01-21T05:08:36.361Z,31.15
2023-01-21T05:11:02.835Z,28.55
2023-01-21T05:13:29.319Z,29.17
2023-01-21T05:15:56.004Z,31.08
2023-01-21T05:18:22.501Z,27.92
2023-01-21T05:20:48.856Z,28.48
2023-01-21T05:23:15.352Z,29.52
2023-01-21T05:25:41.677Z,28.38
2023-01-21T05:28:08.209Z,30.58
2023-01-21T05:30:34.584Z,31.92
2023-01-21T05:33:01.033Z,29.73
2023-01-21T05:35:27.443Z,28.67
2023-01-21T05:37:53.782Z,27.40
2023-01-21T05:40:20.407Z,29.63
2023-01-21T05:42:47.025Z,28.35
2023-01-21T05:45:13.843Z,27.27
2023-01-21T05:47:40.343Z,27.27
2023-01-21T05:50:07.302Z,29.15
2023-01-21T05:52:33.748Z,28.42
2023-01-21T05:55:02.884Z,27.92
2023-01-21T05:57:30.152Z,29.15
2023-01-21T05:59:56.858Z,26.80
2023-01-21T06:02:23.342Z,27.55
2023-01-21T06:04:49.931Z,30.02
2023-01-21T06:07:16.538Z,29.55
2023-01-21T06:09:42.982Z,28.00
2023-01-21T06:12:09.546Z,29.27
2023-01-21T06:14:35.970Z,27.35
2023-01-21T06:17:02.365Z,27.50
2023-01-21T06:19:28.724Z,29.23
2023-01-21T06:21:55.099Z,27.52
2023-01-21T06:24:21.819Z,28.10
2023-01-21T06:26:48.194Z,30.05
2023-01-21T06:29:14.559Z,27.63
2023-01-21T06:31:41.228Z,28.60
2023-01-21T06:34:07.713Z,27.38
2023-01-21T06:36:34.265Z,28.10
2023-01-21T06:39:00.792Z,25.75
2023-01-21T06:41:27.221Z,29.00
2023-01-21T06:43:53.899Z,29.40
2023-01-21T06:46:20.452Z,28.50
2023-01-21T06:48:46.859Z,29.73
2023-01-21T06:51:13.265Z,30.20
2023-01-21T06:53:39.694Z,29.85
2023-01-21T06:56:06.153Z,30.17
2023-01-21T06:58:32.588Z,30.45
2023-01-21T07:00:59.136Z,29.77
2023-01-21T07:03:25.604Z,33.17
2023-01-21T07:05:52.085Z,31.33
2023-01-21T07:08:18.486Z,29.73
2023-01-21T07:10:47.522Z,31.95
2023-01-21T07:13:14.416Z,32.05
2023-01-21T07:15:41.030Z,30.98
2023-01-21T07:18:07.435Z,33.25
2023-01-21T07:20:34.018Z,29.40
2023-01-21T07:23:00.706Z,28.73
2023-01-21T07:25:27.190Z,30.70
2023-01-21T07:27:53.544Z,30.08
2023-01-21T07:30:20.720Z,31.33
2023-01-21T07:32:47.224Z,30.83
2023-01-21T07:35:13.749Z,31.77
2023-01-21T07:37:40.701Z,32.67
2023-01-21T07:40:07.545Z,32.45
2023-01-21T07:42:33.944Z,30.27
2023-01-21T07:45:02.840Z,32.92
2023-01-21T07:47:29.604Z,31.00
2023-01-21T07:49:55.982Z,32.33
2023-01-21T07:52:22.690Z,32.50
2023-01-21T07:54:49.071Z,31.85
2023-01-21T07:57:15.549Z,30.65
2023-01-21T07:59:42.192Z,32.30
2023-01-21T08:02:09.898Z,35.67
2023-01-21T08:04:36.484Z,31.17
2023-01-21T08:07:11.855Z,32.95
2023-01-21T08:09:39.507Z,29.73
2023-01-21T08:12:06.395Z,30.90
2023-01-21T08:14:33.213Z,32.25
2023-01-21T08:17:00.101Z,32.33
2023-01-21T08:19:26.770Z,32.58
2023-01-21T08:21:53.148Z,29.98
2023-01-21T08:24:19.570Z,33.25
2023-01-21T08:26:46.011Z,31.73
2023-01-21T08:29:12.477Z,30.30
2023-01-21T08:31:38.842Z,29.98
2023-01-21T08:34:05.313Z,30.50
2023-01-21T08:36:31.680Z,30.63
2023-01-21T08:39:06.585Z,31.88
2023-01-21T08:41:33.442Z,30.52
2023-01-21T08:43:59.854Z,29.02
2023-01-21T08:46:26.343Z,30.42
2023-01-21T08:48:52.771Z,30.63
2023-01-21T08:51:19.544Z,29.65
2023-01-21T08:53:48.188Z,29.73
2023-01-21T08:56:14.577Z,28.20
2023-01-21T08:58:41.728Z,29.17
2023-01-21T09:01:09.060Z,30.00
2023-01-21T09:03:35.547Z,29.05
2023-01-21T09:06:02.391Z,28.95
2023-01-21T09:08:29.225Z,27.02
2023-01-21T09:11:02.045Z,28.98
2023-01-21T09:13:33.215Z,28.25
2023-01-21T09:16:00.007Z,26.67
2023-01-21T09:18:26.611Z,28.63
2023-01-21T09:20:53.035Z,30.80
2023-01-21T09:23:25.711Z,27.83
2023-01-21T09:26:03.511Z,29.77
2023-01-21T09:28:30.434Z,31.70
2023-01-21T09:31:00.513Z,32.38
2023-01-21T09:33:27.681Z,28.65
2023-01-21T09:35:54.939Z,29.50
2023-01-21T09:38:21.377Z,27.27
2023-01-21T09:40:48.089Z,30.63
2023-01-21T09:43:21.501Z,27.35
2023-01-21T09:45:49.103Z,29.63
2023-01-21T09:48:22.608Z,28.98
2023-01-21T09:50:50.609Z,27.70
2023-01-21T09:53:35.827Z,29.60
2023-01-21T09:56:04.236Z,29.58
2023-01-21T09:58:57.106Z,30.52
2023-01-21T10:01:34.719Z,30.40
2023-01-21T10:04:10.230Z,30.95
2023-01-21T10:06:54.877Z,27.60
2023-01-21T10:09:36.380Z,30.25
2023-01-21T10:12:10.471Z,30.27
2023-01-21T10:14:52.924Z,30.17
2023-01-21T10:17:31.626Z,31.20
2023-01-21T10:20:05.994Z,31.10
2023-01-21T10:22:32.610Z,28.67
2023-01-21T10:25:25.804Z,31.02
2023-01-21T10:27:53.212Z,29.27
2023-01-21T10:30:36.692Z,28.95
2023-01-21T10:33:04.511Z,27.80
2023-01-21T10:35:36.019Z,27.63
2023-01-21T10:38:07.911Z,27.80
2023-01-21T10:40:44.079Z,26.85
2023-01-21T10:43:22.491Z,26.10
2023-01-21T10:45:57.006Z,28.08
2023-01-21T10:48:29.071Z,27.58
2023-01-21T10:51:01.534Z,27.35
2023-01-21T10:53:28.256Z,28.23
2023-01-21T10:56:09.733Z,27.65
2023-01-21T10:58:41.445Z,29.58
2023-01-21T11:01:09.955Z,28.42
2023-01-21T11:03:43.631Z,26.98
2023-01-21T11:06:14.471Z,26.15
2023-01-21T11:08:43.450Z,22.95
2023-01-21T11:11:10.342Z,22.75
2023-01-21T11:13:36.863Z,22.75
2023-01-21T11:16:04.516Z,22.83
2023-01-21T11:18:38.109Z,22.67
2023-01-21T11:21:14.385Z,20.85
2023-01-21T11:23:40.839Z,21.25
2023-01-21T11:26:15.581Z,19.67
2023-01-21T11:28:41.980Z,20.10
2023-01-21T11:31:08.875Z,19.73
2023-01-21T11:33:36.063Z,20.17
2023-01-21T11:36:13.492Z,20.42
2023-01-21T11:38:39.979Z,20.88
2023-01-21T11:41:06.376Z,19.15
2023-01-21T11:43:34.621Z,18.58
2023-01-21T11:46:01.297Z,18.92
2023-01-21T11:48:27.695Z,18.73
2023-01-21T11:51:07.185Z,20.70
2023-01-21T11:53:33.662Z,19.90
2023-01-21T11:56:02.974Z,18.85
2023-01-21T11:58:31.432Z,18.70
2023-01-21T12:00:59.493Z,18.65
2023-01-21T12:03:28.925Z,18.35
2023-01-21T12:05:55.455Z,19.38
2023-01-21T12:08:24.426Z,20.20
2023-01-21T12:10:51.719Z,21.17
2023-01-21T12:13:23.414Z,19.80
2023-01-21T12:15:53.125Z,19.10
2023-01-21T12:18:34.875Z,19.60
2023-01-21T12:21:04.465Z,18.60
2023-01-21T12:23:40.979Z,19.60
2023-01-21T12:26:16.489Z,19.45
2023-01-21T12:28:55.093Z,20.38
2023-01-21T12:31:24.002Z,18.80
2023-01-21T12:33:50.367Z,19.98
2023-01-21T12:36:19.579Z,18.85
2023-01-21T12:38:54.438Z,19.85
2023-01-21T12:41:27.431Z,21.50
2023-01-21T12:44:00.732Z,19.33
2023-01-21T12:46:37.547Z,18.52
2023-01-21T12:49:24.213Z,18.75
2023-01-21T12:51:54.331Z,16.95
2023-01-21T12:54:26.204Z,16.73
2023-01-21T12:57:19.000Z,17.63
2023-01-21T12:59:49.646Z,15.32
2023-01-21T13:02:23.890Z,17.92
2023-01-21T13:04:56.651Z,15.43
2023-01-21T13:07:32.235Z,18.88
2023-01-21T13:09:59.002Z,18.17
2023-01-21T13:12:26.477Z,18.48
2023-01-21T13:15:16.152Z,18.15
2023-01-21T13:17:44.057Z,20.10
2023-01-21T13:20:20.339Z,19.58
2023-01-21T13:22:46.690Z,20.55
2023-01-21T13:25:22.185Z,17.42
2023-01-21T13:28:01.329Z,16.70
2023-01-21T13:30:36.623Z,18.00
2023-01-21T13:33:18.412Z,18.25
2023-01-21T13:35:53.260Z,17.83
2023-01-21T13:38:28.710Z,17.63
2023-01-21T13:41:00.501Z,17.65
2023-01-21T13:43:41.412Z,19.05
2023-01-21T13:46:19.818Z,18.48
2023-01-21T13:49:02.859Z,17.67
2023-01-21T13:51:32.489Z,16.80
2023-01-21T13:54:16.188Z,18.13
2023-01-21T13:56:56.632Z,18.13
2023-01-21T13:59:25.539Z,18.08
2023-01-21T14:01:56.107Z,18.38
2023-01-21T14:04:34.719Z,17.15
2023-01-21T14:07:05.053Z,18.20
2023-01-21T14:09:33.006Z,17.77
2023-01-21T14:12:22.787Z,18.77
2023-01-21T14:15:04.385Z,17.30
2023-01-21T14:17:33.880Z,16.42
2023-01-21T14:20:00.224Z,17.17
2023-01-21T14:22:50.479Z,17.42
2023-01-21T14:25:25.949Z,17.42
2023-01-21T14:27:55.314Z,17.83
2023-01-21T14:30:28.164Z,17.30
2023-01-21T14:32:56.834Z,17.02
2023-01-21T14:35:43.456Z,17.48
2023-01-21T14:38:14.389Z,15.93
2023-01-21T14:40:45.414Z,16.88
2023-01-21T14:43:29.914Z,17.25
2023-01-21T14:45:57.077Z,16.15
2023-01-21T14:48:30.968Z,17.33
2023-01-21T14:51:06.472Z,17.52
2023-01-21T14:53:41.569Z,18.13
2023-01-21T14:56:10.659Z,17.63
2023-01-21T14:58:37.347Z,16.35
2023-01-21T15:01:04.652Z,15.32
2023-01-21T15:03:31.496Z,17.83
2023-01-21T15:06:02.387Z,16.90
2023-01-21T15:08:45.557Z,15.75
2023-01-21T15:11:35.330Z,15.00
2023-01-21T15:14:07.350Z,18.17
2023-01-21T15:16:35.572Z,17.67
2023-01-21T15:19:07.952Z,18.30
2023-01-21T15:21:37.442Z,18.17
2023-01-21T15:24:23.181Z,19.90
2023-01-21T15:27:08.119Z,18.15
2023-01-21T15:29:35.711Z,18.55
2023-01-21T15:32:17.181Z,16.77
2023-01-21T15:34:44.698Z,17.92
2023-01-21T15:37:16.652Z,20.48
2023-01-21T15:39:43.914Z,20.33
2023-01-21T15:42:13.412Z,20.02
2023-01-21T15:45:01.952Z,20.58
2023-01-21T15:47:46.706Z,17.98
2023-01-21T15:50:22.024Z,16.42
2023-01-21T15:52:51.456Z,20.00
2023-01-21T15:55:36.703Z,18.42
2023-01-21T15:58:18.970Z,16.52
2023-01-21T16:00:49.642Z,19.70
2023-01-21T16:03:24.492Z,19.83
2023-01-21T16:05:53.699Z,20.23
2023-01-21T16:08:20.162Z,21.55
2023-01-21T16:10:58.878Z,19.90
2023-01-21T16:13:28.447Z,19.38
2023-01-21T16:16:06.844Z,21.35
2023-01-21T16:18:48.217Z,20.10
2023-01-21T16:21:16.230Z,21.55
2023-01-21T16:23:42.904Z,23.27
2023-01-21T16:26:09.299Z,21.38
2023-01-21T16:28:43.205Z,21.20
2023-01-21T16:31:10.003Z,25.08
2023-01-21T16:33:36.511Z,26.77
2023-01-21T16:36:06.206Z,23.77
2023-01-21T16:38:33.464Z,24.20
2023-01-21T16:41:15.099Z,22.25
2023-01-21T16:43:49.070Z,21.50
2023-01-21T16:46:16.828Z,22.67
2023-01-21T16:48:43.621Z,23.77
2023-01-21T16:51:18.557Z,23.27
2023-01-21T16:53:44.931Z,22.42
2023-01-21T16:56:25.052Z,20.95
2023-01-21T16:58:51.448Z,21.48
2023-01-21T17:01:20.895Z,22.13
2023-01-21T17:03:47.616Z,23.20
2023-01-21T17:06:15.788Z,21.83
2023-01-21T17:08:46.072Z,21.17
2023-01-21T17:11:12.639Z,19.67
2023-01-21T17:13:41.001Z,19.58
2023-01-21T17:16:13.017Z,21.25
2023-01-21T17:18:42.132Z,18.98
2023-01-21T17:21:11.741Z,19.02
2023-01-21T17:23:38.102Z,18.17
2023-01-21T17:26:04.547Z,16.70
2023-01-21T17:28:32.525Z,17.95
2023-01-21T17:31:09.590Z,19.35
2023-01-21T17:33:36.212Z,18.30
2023-01-21T17:36:11.479Z,19.73
2023-01-21T17:38:39.250Z,20.95
2023-01-21T17:41:08.324Z,20.20
2023-01-21T17:43:36.813Z,18.20
2023-01-21T17:46:03.355Z,19.45
2023-01-21T17:48:32.394Z,18.65
2023-01-21T17:51:12.809Z,19.77
2023-01-21T17:53:44.166Z,18.55
2023-01-21T17:56:11.796Z,17.90
2023-01-21T17:58:41.570Z,18.75
2023-01-21T18:01:08.941Z,18.13
2023-01-21T18:03:35.269Z,18.13
2023-01-21T18:06:02.299Z,18.75
2023-01-21T18:08:28.671Z,18.27
2023-01-21T18:10:55.279Z,18.70
2023-01-21T18:13:22.299Z,20.92
2023-01-21T18:15:51.748Z,19.70
2023-01-21T18:18:20.824Z,19.85
2023-01-21T18:20:47.297Z,19.48
2023-01-21T18:23:15.331Z,19.30
2023-01-21T18:25:42.335Z,43.85
2023-01-21T18:28:16.935Z,26.35
2023-01-21T18:30:43.495Z,31.77
2023-01-21T18:33:10.723Z,24.58
2023-01-21T18:35:37.110Z,30.00
2023-01-21T18:38:04.026Z,33.85
2023-01-21T18:40:30.462Z,30.05
2023-01-21T18:42:56.821Z,34.25
2023-01-21T18:45:25.783Z,28.42
2023-01-21T18:47:52.267Z,22.85
2023-01-21T18:50:20.066Z,22.52
2023-01-21T18:52:46.525Z,25.13
2023-01-21T18:55:13.994Z,23.88
2023-01-21T18:57:41.774Z,53.45
2023-01-21T19:00:17.719Z,24.95
2023-01-21T19:02:44.252Z,21.00
2023-01-21T19:05:10.632Z,21.90
2023-01-21T19:07:37.006Z,22.83
2023-01-21T19:10:03.768Z,22.63
2023-01-21T19:12:30.171Z,22.33
2023-01-21T19:14:56.616Z,22.63
2023-01-21T19:17:26.271Z,21.50
2023-01-21T19:19:55.748Z,24.45
2023-01-21T19:22:22.207Z,23.40
2023-01-21T19:24:49.195Z,21.85
2023-01-21T19:27:32.450Z,22.83
2023-01-21T19:29:58.899Z,25.35
2023-01-21T19:32:25.384Z,22.27
2023-01-21T19:34:52.052Z,23.05
2023-01-21T19:37:19.738Z,21.55
2023-01-21T19:39:46.138Z,23.70
2023-01-21T19:42:13.684Z,37.40
2023-01-21T19:44:40.193Z,32.30
2023-01-21T19:47:14.498Z,33.30
2023-01-21T19:49:40.870Z,22.95
2023-01-21T19:52:07.869Z,23.77
2023-01-21T19:54:34.244Z,28.25
2023-01-21T19:57:00.838Z,30.08
2023-01-21T19:59:27.196Z,29.58
2023-01-21T20:01:53.638Z,28.15
2023-01-21T20:04:20.039Z,33.33
2023-01-21T20:06:46.485Z,32.50
2023-01-21T20:09:17.743Z,31.58
2023-01-21T20:11:44.267Z,21.38
2023-01-21T20:14:11.254Z,26.65
2023-01-21T20:16:56.445Z,32.42
2023-01-21T20:19:23.065Z,23.52
2023-01-21T20:22:01.227Z,32.30
2023-01-21T20:24:30.291Z,42.65
2023-01-21T20:26:57.253Z,22.52
2023-01-21T20:29:23.632Z,26.45
2023-01-21T20:31:51.945Z,40.10
2023-01-21T20:34:18.426Z,52.63
2023-01-21T20:36:48.385Z,29.05
2023-01-21T20:39:15.075Z,27.50
2023-01-21T20:41:43.374Z,24.05
2023-01-21T20:44:09.888Z,24.48
2023-01-21T20:46:36.312Z,22.23
2023-01-21T20:49:02.915Z,24.13
2023-01-21T20:51:29.717Z,23.00
2023-01-21T20:53:56.114Z,25.13
2023-01-21T20:56:22.618Z,24.88
2023-01-21T20:58:49.234Z,25.20
2023-01-21T21:01:17.088Z,26.77
2023-01-21T21:03:43.538Z,24.02
2023-01-21T21:06:17.225Z,25.40
2023-01-21T21:08:43.949Z,24.42
2023-01-21T21:11:10.731Z,25.58
2023-01-21T21:13:37.350Z,27.55
2023-01-21T21:16:14.192Z,22.17
2023-01-21T21:18:40.837Z,24.38
2023-01-21T21:21:07.239Z,26.95
2023-01-21T21:23:33.592Z,26.90
2023-01-21T21:25:59.970Z,29.08
2023-01-21T21:28:26.376Z,23.85
2023-01-21T21:30:53.025Z,25.58
2023-01-21T21:33:20.732Z,25.50
2023-01-21T21:35:47.223Z,26.45
2023-01-21T21:38:17.765Z,28.50
2023-01-21T21:40:52.923Z,27.77
2023-01-21T21:43:32.693Z,24.13
2023-01-21T21:46:27.187Z,26.95
2023-01-21T21:48:53.634Z,24.35
2023-01-21T21:51:21.697Z,28.23
2023-01-21T21:53:48.635Z,31.83
2023-01-21T21:56:16.357Z,25.90
2023-01-21T21:58:43.203Z,23.55
2023-01-21T22:01:16.808Z,28.88
2023-01-21T22:03:43.885Z,24.92
2023-01-21T22:06:10.999Z,24.27
2023-01-21T22:08:38.481Z,22.48
2023-01-21T22:11:06.194Z,26.75
2023-01-21T22:13:34.536Z,25.27
2023-01-21T22:16:01.369Z,23.17
2023-01-21T22:18:28.845Z,20.27
2023-01-21T22:21:02.294Z,23.20
2023-01-21T22:23:29.869Z,22.80
2023-01-21T22:25:56.801Z,26.02
2023-01-21T22:28:23.655Z,95.22
2023-01-21T22:30:50.127Z,63.53
2023-01-21T22:33:16.778Z,31.63
2023-01-21T22:35:45.371Z,39.67
2023-01-21T22:38:11.790Z,81.00
2023-01-21T22:40:40.130Z,60.97
2023-01-21T22:43:07.401Z,30.98
2023-01-21T22:45:33.971Z,37.80
2023-01-21T22:48:01.236Z,51.65
2023-01-21T22:50:28.271Z,61.45
2023-01-21T22:52:54.913Z,61.88
2023-01-21T22:55:21.346Z,55.28
2023-01-21T22:57:47.772Z,99.03
2023-01-21T23:00:15.359Z,73.65
2023-01-21T23:02:41.703Z,52.08
2023-01-21T23:05:08.541Z,59.13
2023-01-21T23:07:34.955Z,106.68
2023-01-21T23:10:01.289Z,50.63
2023-01-21T23:12:28.808Z,63.60
2023-01-21T23:14:55.224Z,59.97
2023-01-21T23:17:21.666Z,48.00
2023-01-21T23:19:48.137Z,59.42
2023-01-21T23:22:14.589Z,63.50
2023-01-21T23:24:41.005Z,32.97
2023-01-21T23:27:07.324Z,26.23
2023-01-21T23:29:33.922Z,23.08
2023-01-21T23:32:00.580Z,19.85
2023-01-21T23:34:26.993Z,20.20
2023-01-21T23:36:53.554Z,21.58
2023-01-21T23:39:19.933Z,20.40
2023-01-21T23:41:46.261Z,19.52
2023-01-21T23:44:12.671Z,20.35
2023-01-21T23:46:39.116Z,19.15
2023-01-21T23:49:05.625Z,18.20
2023-01-21T23:51:32.197Z,18.83
2023-01-21T23:53:58.667Z,18.83
2023-01-21T23:56:25.578Z,18.90
2023-01-21T23:58:52.651Z,19.15
